Time;durP1;ratioP1;P1;durP2;ratioP2;P2;SDS_P1;SDS_P2;PMS_P1;PMS_P2;Temp;Humidity;BMP_temperature;BMP_pressure;BME280_temperature;BME280_humidity;BME280_pressure;Samples;Min_cycle;Max_cycle;Signal;HPM_P1;HPM_P2
2022/02/26 00:01:06;;;;;;;3.13;0.70;;;;;;;;;;5054543;28;20025;-70
2022/02/26 00:03:33;;;;;;;3.80;0.80;;;;;;;;;;5054547;28;20032;-70
2022/02/26 00:05:59;;;;;;;1.07;0.60;;;;;;;;;;5054426;28;20028;-70
2022/02/26 00:08:25;;;;;;;5.93;0.67;;;;;;;;;;5054753;28;20037;-70
2022/02/26 00:10:51;;;;;;;1.93;0.90;;;;;;;;;;5054252;28;20067;-70
2022/02/26 00:13:17;;;;;;;2.10;0.77;;;;;;;;;;5054375;28;20028;-70
2022/02/26 00:15:43;;;;;;;5.23;0.90;;;;;;;;;;5054182;28;20025;-70
2022/02/26 00:18:09;;;;;;;2.63;0.70;;;;;;;;;;5054481;28;20021;-70
2022/02/26 00:20:35;;;;;;;1.47;0.50;;;;;;;;;;5054158;28;20021;-71
2022/02/26 00:23:01;;;;;;;1.47;0.73;;;;;;;;;;5053961;28;20083;-70
2022/02/26 00:25:27;;;;;;;2.30;0.70;;;;;;;;;;5054213;28;20066;-70
2022/02/26 00:27:53;;;;;;;1.63;0.90;;;;;;;;;;5054262;28;20615;-70
2022/02/26 00:30:19;;;;;;;2.43;0.93;;;;;;;;;;5054029;28;20063;-69
2022/02/26 00:32:45;;;;;;;2.50;1.00;;;;;;;;;;5054066;28;20373;-70
2022/02/26 00:35:11;;;;;;;1.73;0.70;;;;;;;;;;5053789;28;20059;-70
2022/02/26 00:37:38;;;;;;;4.57;1.00;;;;;;;;;;5054025;28;20021;-70
2022/02/26 00:40:05;;;;;;;4.93;0.83;;;;;;;;;;5054084;28;20051;-70
2022/02/26 00:42:31;;;;;;;3.53;0.70;;;;;;;;;;5053463;28;20025;-70
2022/02/26 00:44:57;;;;;;;1.80;0.70;;;;;;;;;;5053849;28;20107;-70
2022/02/26 00:47:23;;;;;;;2.13;0.67;;;;;;;;;;5053722;28;20125;-70
2022/02/26 00:49:52;;;;;;;3.87;0.80;;;;;;;;;;5053774;28;20389;-70
2022/02/26 00:52:22;;;;;;;2.77;0.63;;;;;;;;;;5053875;28;20029;-70
2022/02/26 00:54:48;;;;;;;3.90;0.77;;;;;;;;;;5053584;28;20028;-70
2022/02/26 00:57:15;;;;;;;1.33;0.70;;;;;;;;;;5053731;28;20100;-70
2022/02/26 00:59:41;;;;;;;3.00;0.97;;;;;;;;;;5053402;28;20025;-69
2022/02/26 01:02:08;;;;;;;2.13;0.90;;;;;;;;;;5053435;28;20108;-70
2022/02/26 01:04:35;;;;;;;2.93;0.80;;;;;;;;;;5053414;28;20017;-70
2022/02/26 01:07:01;;;;;;;2.77;0.63;;;;;;;;;;5053390;28;20424;-70
2022/02/26 01:09:27;;;;;;;2.47;0.80;;;;;;;;;;5053602;28;20029;-70
2022/02/26 01:11:53;;;;;;;0.90;0.53;;;;;;;;;;5053304;28;20028;-69
2022/02/26 01:14:19;;;;;;;1.33;0.70;;;;;;;;;;5053414;28;20033;-70
2022/02/26 01:16:45;;;;;;;2.20;0.70;;;;;;;;;;5052983;28;20048;-70
2022/02/26 01:19:12;;;;;;;1.90;0.70;;;;;;;;;;5053124;28;20154;-69
2022/02/26 01:21:38;;;;;;;2.07;0.70;;;;;;;;;;5052561;28;20466;-70
2022/02/26 01:24:04;;;;;;;1.07;0.60;;;;;;;;;;5052964;28;20377;-69
2022/02/26 01:26:30;;;;;;;1.93;0.70;;;;;;;;;;5053253;28;20127;-69
2022/02/26 01:28:56;;;;;;;2.03;0.63;;;;;;;;;;5053198;28;20028;-70
2022/02/26 01:31:22;;;;;;;2.47;0.97;;;;;;;;;;5053307;28;20139;-73
2022/02/26 01:33:49;;;;;;;2.57;0.70;;;;;;;;;;5052864;28;20037;-69
2022/02/26 01:36:15;;;;;;;2.87;0.60;;;;;;;;;;5052999;28;20488;-69
2022/02/26 01:38:41;;;;;;;2.73;0.93;;;;;;;;;;5052946;28;20024;-69
2022/02/26 01:41:07;;;;;;;3.43;0.80;;;;;;;;;;5052908;28;20095;-69
2022/02/26 01:43:34;;;;;;;2.50;1.03;;;;;;;;;;5053089;28;20047;-70
2022/02/26 01:46:01;;;;;;;2.40;0.90;;;;;;;;;;5053038;28;20078;-69
2022/02/26 01:48:29;;;;;;;2.53;0.70;;;;;;;;;;5052729;28;20017;-69
2022/02/26 01:50:55;;;;;;;2.13;0.90;;;;;;;;;;5053119;28;20052;-69
2022/02/26 01:53:22;;;;;;;3.17;0.70;;;;;;;;;;5053168;28;20477;-69
2022/02/26 01:55:49;;;;;;;2.73;0.60;;;;;;;;;;5052806;28;20060;-70
2022/02/26 01:58:15;;;;;;;4.23;0.70;;;;;;;;;;5051218;28;20029;-70
2022/02/26 02:00:41;;;;;;;2.40;0.73;;;;;;;;;;5050149;28;20037;-70
2022/02/26 02:03:07;;;;;;;1.93;0.60;;;;;;;;;;5050075;28;20400;-69
2022/02/26 02:05:33;;;;;;;1.67;0.50;;;;;;;;;;5051735;28;20060;-70
2022/02/26 02:07:59;;;;;;;3.77;0.53;;;;;;;;;;5053017;28;20432;-70
2022/02/26 02:10:26;;;;;;;1.80;0.80;;;;;;;;;;5052574;28;20029;-69
2022/02/26 02:12:52;;;;;;;3.60;1.37;;;;;;;;;;5052578;28;20037;-69
2022/02/26 02:15:38;;;;;;;1.87;0.60;;;;;;;;;;5052422;28;20041;-70
2022/02/26 02:18:05;;;;;;;1.80;0.60;;;;;;;;;;5052370;28;20029;-70
2022/02/26 02:20:31;;;;;;;3.07;0.70;;;;;;;;;;5052271;28;20401;-70
2022/02/26 02:22:57;;;;;;;2.67;0.70;;;;;;;;;;5052707;28;20072;-70
2022/02/26 02:25:29;;;;;;;9.77;0.77;;;;;;;;;;5052632;28;20591;-70
2022/02/26 02:27:55;;;;;;;1.97;0.70;;;;;;;;;;5052254;28;20082;-69
2022/02/26 02:30:22;;;;;;;2.80;0.90;;;;;;;;;;5052365;28;20032;-69
2022/02/26 02:32:48;;;;;;;2.97;0.97;;;;;;;;;;5052553;28;20112;-69
2022/02/26 02:35:25;;;;;;;2.77;0.63;;;;;;;;;;5055056;28;20040;-69
2022/02/26 02:37:51;;;;;;;3.13;0.60;;;;;;;;;;5056335;28;20033;-68
2022/02/26 02:40:17;;;;;;;1.63;0.80;;;;;;;;;;5056096;28;20430;-69
2022/02/26 02:42:43;;;;;;;1.77;0.50;;;;;;;;;;5055775;28;20385;-72
2022/02/26 02:45:09;;;;;;;3.23;0.70;;;;;;;;;;5056195;28;20024;-69
2022/02/26 02:47:36;;;;;;;2.13;0.50;;;;;;;;;;5055788;28;20032;-69
2022/02/26 02:50:02;;;;;;;3.40;0.67;;;;;;;;;;5055826;28;20032;-71
2022/02/26 02:52:28;;;;;;;1.73;0.63;;;;;;;;;;5055819;28;20021;-69
2022/02/26 02:54:54;;;;;;;2.57;0.90;;;;;;;;;;5055778;28;20104;-69
2022/02/26 02:57:20;;;;;;;2.90;0.83;;;;;;;;;;5055849;28;20347;-69
2022/02/26 02:59:46;;;;;;;1.73;0.70;;;;;;;;;;5055316;28;20028;-69
2022/02/26 03:02:12;;;;;;;0.80;0.60;;;;;;;;;;5056006;28;20018;-69
2022/02/26 03:04:38;;;;;;;2.67;0.80;;;;;;;;;;5055878;28;20024;-69
2022/02/26 03:07:04;;;;;;;2.20;0.73;;;;;;;;;;5055831;28;20017;-73
2022/02/26 03:09:30;;;;;;;3.60;0.70;;;;;;;;;;5055703;28;20025;-69
2022/02/26 03:11:56;;;;;;;2.63;0.80;;;;;;;;;;5055286;28;20021;-69
2022/02/26 03:14:22;;;;;;;1.67;0.60;;;;;;;;;;5055462;28;20024;-69
2022/02/26 03:16:48;;;;;;;4.30;1.37;;;;;;;;;;5055455;28;20033;-69
2022/02/26 03:19:14;;;;;;;1.63;0.57;;;;;;;;;;5055719;28;20520;-70
2022/02/26 03:21:40;;;;;;;2.10;0.80;;;;;;;;;;5055543;28;20025;-70
2022/02/26 03:24:10;;;;;;;4.50;0.60;;;;;;;;;;5055277;28;20535;-70
2022/02/26 03:26:36;;;;;;;1.60;0.60;;;7.90;70.20;;;;;;5055245;28;20104;-69
2022/02/26 03:29:03;;;;;;;2.60;0.70;;;7.00;53.90;;;;;;5055498;28;20139;-69
2022/02/26 03:31:29;;;;;;;0.80;0.50;;;6.90;54.90;;;;;;5055394;28;20021;-69
2022/02/26 03:33:55;;;;;;;1.90;0.70;;;6.90;54.30;;;;;;5055177;28;20040;-70
2022/02/26 03:36:20;;;;;;;2.43;0.70;;;6.90;54.20;;;;;;5054627;28;20504;-69
2022/02/26 03:38:46;;;;;;;1.07;0.50;;;6.90;54.60;;;;;;5055017;28;20052;-69
2022/02/26 03:41:13;;;;;;;1.37;0.40;;;6.80;54.40;;;;;;5055175;28;20033;-70
2022/02/26 03:43:40;;;;;;;3.60;0.73;;;6.80;53.60;;;;;;5055230;28;20029;-69
2022/02/26 03:46:06;;;;;;;3.13;0.67;;;6.80;54.00;;;;;;5054705;28;20029;-69
2022/02/26 03:48:32;;;;;;;1.87;0.60;;;6.70;54.00;;;;;;5055059;28;20078;-69
2022/02/26 03:51:04;;;;;;;1.67;0.50;;;6.70;53.90;;;;;;5055001;28;20054;-69
2022/02/26 03:53:30;;;;;;;3.00;0.70;;;6.70;54.40;;;;;;5054823;28;20024;-70
2022/02/26 03:55:57;;;;;;;1.77;0.60;;;6.60;54.10;;;;;;5054859;28;20063;-69
2022/02/26 03:58:22;;;;;;;1.40;0.50;;;6.60;54.80;;;;;;5054903;28;20029;-72
2022/02/26 04:00:48;;;;;;;2.17;0.70;;;6.60;55.10;;;;;;5054655;28;20035;-70
2022/02/26 04:03:13;;;;;;;1.33;0.50;;;6.50;54.70;;;;;;5054985;28;20025;-69
2022/02/26 04:05:39;;;;;;;1.13;0.40;;;6.50;54.60;;;;;;5054664;28;20096;-69
2022/02/26 04:08:05;;;;;;;1.83;0.63;;;6.50;55.40;;;;;;5054451;28;20094;-70
2022/02/26 04:10:31;;;;;;;2.57;0.87;;;6.60;55.60;;;;;;5054347;28;20726;-69
2022/02/26 04:12:57;;;;;;;1.83;0.80;;;6.50;55.60;;;;;;5054519;28;20025;-69
2022/02/26 04:15:22;;;;;;;1.80;0.73;;;6.60;55.70;;;;;;5054540;28;20061;-69
2022/02/26 04:17:48;;;;;;;2.00;0.80;;;6.60;55.40;;;;;;5054500;28;20025;-69
2022/02/26 04:20:14;;;;;;;2.47;0.77;;;6.50;55.30;;;;;;5054579;28;20441;-69
2022/02/26 04:22:40;;;;;;;4.40;0.70;;;6.50;55.80;;;;;;5054229;28;20029;-71
2022/02/26 04:25:06;;;;;;;3.83;0.90;;;6.50;55.70;;;;;;5054428;28;20025;-69
2022/02/26 04:27:32;;;;;;;2.20;0.70;;;6.40;55.20;;;;;;5054345;28;20382;-69
2022/02/26 04:29:58;;;;;;;2.37;0.77;;;6.40;55.70;;;;;;5054501;28;20135;-69
2022/02/26 04:32:24;;;;;;;1.77;0.70;;;6.40;55.80;;;;;;5054144;28;20021;-69
2022/02/26 04:34:50;;;;;;;1.87;0.70;;;6.30;55.10;;;;;;5053992;28;20173;-69
2022/02/26 04:37:20;;;;;;;5.40;1.00;;;6.30;56.30;;;;;;5054393;28;20025;-69
2022/02/26 04:39:47;;;;;;;1.87;0.80;;;6.20;56.20;;;;;;5054352;28;20033;-69
2022/02/26 04:42:13;;;;;;;2.77;0.90;;;6.20;56.60;;;;;;5054000;28;20028;-68
2022/02/26 04:44:38;;;;;;;3.00;0.70;;;6.10;56.20;;;;;;5054017;28;20028;-70
2022/02/26 04:47:04;;;;;;;1.47;0.70;;;6.10;57.20;;;;;;5053995;28;20079;-69
2022/02/26 04:49:30;;;;;;;2.07;0.77;;;6.10;56.80;;;;;;5054048;28;20028;-70
2022/02/26 04:51:56;;;;;;;1.93;0.60;;;6.10;57.20;;;;;;5054096;28;20082;-70
2022/02/26 04:54:21;;;;;;;2.03;0.57;;;6.10;57.80;;;;;;5053904;28;20021;-70
2022/02/26 04:56:47;;;;;;;1.13;0.70;;;6.10;57.70;;;;;;5052724;28;20037;-69
2022/02/26 04:59:13;;;;;;;5.33;0.80;;;6.10;56.90;;;;;;5053752;28;20100;-69
2022/02/26 05:01:39;;;;;;;1.70;0.77;;;6.00;58.00;;;;;;5053677;28;20017;-69
2022/02/26 05:04:04;;;;;;;2.30;0.70;;;6.00;57.60;;;;;;5053451;28;20096;-69
2022/02/26 05:06:30;;;;;;;2.47;0.80;;;6.00;58.10;;;;;;5053372;28;20100;-69
2022/02/26 05:08:56;;;;;;;5.53;0.70;;;6.00;58.60;;;;;;5053359;28;20032;-69
2022/02/26 05:11:21;;;;;;;4.90;1.00;;;6.00;58.50;;;;;;5053634;28;20484;-70
2022/02/26 05:13:47;;;;;;;3.37;0.80;;;6.00;59.30;;;;;;5053526;28;20025;-70
2022/02/26 05:16:13;;;;;;;2.30;0.80;;;5.90;58.80;;;;;;5053480;28;20036;-68
2022/02/26 05:18:39;;;;;;;1.93;0.73;;;5.80;58.60;;;;;;5053408;28;20410;-69
2022/02/26 05:21:04;;;;;;;2.63;0.83;;;5.80;58.60;;;;;;5053434;28;20159;-69
2022/02/26 05:23:30;;;;;;;1.40;0.70;;;5.80;58.90;;;;;;5053310;28;20032;-70
2022/02/26 05:25:56;;;;;;;2.23;0.90;;;5.80;59.00;;;;;;5053356;28;20036;-70
2022/02/26 05:28:22;;;;;;;2.77;1.00;;;5.80;59.20;;;;;;5052854;28;20021;-70
2022/02/26 05:30:47;;;;;;;2.63;0.90;;;5.80;58.90;;;;;;5053026;28;20033;-70
2022/02/26 05:33:13;;;;;;;3.73;1.23;;;5.70;58.80;;;;;;5053371;28;20032;-70
2022/02/26 05:35:39;;;;;;;3.30;1.00;;;5.80;59.00;;;;;;5053041;28;20136;-70
2022/02/26 05:38:05;;;;;;;3.80;1.57;;;5.80;59.20;;;;;;5053469;28;20552;-69
2022/02/26 05:40:31;;;;;;;4.00;1.33;;;5.80;59.20;;;;;;5053187;28;20116;-70
2022/02/26 05:42:56;;;;;;;3.27;1.50;;;5.70;59.00;;;;;;5053288;28;20438;-70
2022/02/26 05:45:22;;;;;;;4.57;1.53;;;5.70;58.90;;;;;;5053094;28;20485;-73
2022/02/26 05:47:48;;;;;;;2.07;1.30;;;5.80;58.70;;;;;;5053132;28;20378;-70
2022/02/26 05:50:14;;;;;;;3.33;1.30;;;5.80;58.90;;;;;;5053069;28;20587;-69
2022/02/26 05:52:40;;;;;;;3.17;1.20;;;5.80;59.00;;;;;;5052946;28;20021;-73
2022/02/26 05:55:06;;;;;;;4.50;1.20;;;5.80;58.70;;;;;;5052639;28;20123;-69
2022/02/26 05:57:32;;;;;;;3.03;1.20;;;5.80;57.90;;;;;;5053087;28;20017;-70
2022/02/26 05:59:58;;;;;;;2.37;1.27;;;5.90;58.10;;;;;;5053117;28;20025;-70
2022/02/26 06:02:24;;;;;;;3.47;1.23;;;5.90;57.90;;;;;;5052797;28;20385;-69
2022/02/26 06:04:50;;;;;;;2.53;1.33;;;5.80;58.00;;;;;;5052923;28;20049;-69
2022/02/26 06:07:15;;;;;;;2.33;0.97;;;5.80;58.20;;;;;;5052855;28;20029;-70
2022/02/26 06:09:41;;;;;;;2.63;0.80;;;5.80;58.10;;;;;;5056866;28;20024;-69
2022/02/26 06:12:08;;;;;;;9.47;1.07;;;5.90;57.70;;;;;;5056758;28;20017;-69
2022/02/26 06:14:34;;;;;;;3.63;1.40;;;5.90;57.00;;;;;;5056816;28;20500;-69
2022/02/26 06:16:59;;;;;;;1.07;0.73;;;5.90;57.40;;;;;;5056602;28;20033;-69
2022/02/26 06:19:25;;;;;;;5.30;1.23;;;5.90;57.10;;;;;;5056667;28;20028;-69
2022/02/26 06:21:51;;;;;;;4.47;1.20;;;6.00;57.30;;;;;;5056590;28;20021;-69
2022/02/26 06:24:17;;;;;;;2.50;1.20;;;6.00;57.30;;;;;;5056654;28;20023;-69
2022/02/26 06:26:44;;;;;;;3.60;1.03;;;6.00;57.70;;;;;;5056943;28;20048;-68
2022/02/26 06:29:09;;;;;;;1.70;1.10;;;6.00;57.80;;;;;;5056811;28;20505;-69
2022/02/26 06:31:35;;;;;;;2.30;1.20;;;6.10;57.90;;;;;;5056536;28;20017;-69
2022/02/26 06:34:01;;;;;;;2.40;1.07;;;6.10;57.80;;;;;;5056308;28;20076;-69
2022/02/26 06:36:26;;;;;;;2.53;1.23;;;6.10;57.80;;;;;;5056312;28;20048;-70
2022/02/26 06:38:52;;;;;;;3.03;1.27;;;6.10;57.70;;;;;;5056279;28;20470;-69
2022/02/26 06:41:18;;;;;;;4.20;1.30;;;6.10;57.50;;;;;;5056300;28;20385;-69
2022/02/26 06:43:44;;;;;;;3.83;1.20;;;6.10;58.10;;;;;;5056087;28;20056;-70
2022/02/26 06:46:11;;;;;;;4.33;1.17;;;6.10;58.40;;;;;;5055934;28;20075;-69
2022/02/26 06:48:37;;;;;;;6.90;1.30;;;6.10;58.00;;;;;;5056771;28;20469;-70
2022/02/26 06:51:03;;;;;;;3.63;1.30;;;6.10;58.20;;;;;;5056469;28;20025;-70
2022/02/26 06:53:28;;;;;;;3.70;1.10;;;6.10;58.40;;;;;;5056010;28;20036;-69
2022/02/26 06:55:54;;;;;;;2.83;1.00;;;6.10;58.20;;;;;;5055830;28;20033;-75
2022/02/26 06:58:20;;;;;;;5.33;1.20;;;6.20;57.30;;;;;;5055902;28;20021;-69
2022/02/26 07:00:45;;;;;;;1.70;0.93;;;6.20;58.00;;;;;;5055527;28;20032;-70
2022/02/26 07:03:12;;;;;;;3.40;1.17;;;6.10;57.90;;;;;;5055864;28;20025;-70
2022/02/26 07:05:37;;;;;;;3.27;1.33;;;6.20;58.10;;;;;;5055921;28;20032;-70
2022/02/26 07:08:03;;;;;;;1.57;0.80;;;6.20;57.60;;;;;;5054457;28;20024;-70
2022/02/26 07:10:29;;;;;;;2.57;1.20;;;6.20;57.40;;;;;;5055678;28;20025;-70
2022/02/26 07:12:55;;;;;;;2.70;1.17;;;6.20;58.00;;;;;;5055725;28;20025;-69
2022/02/26 07:15:20;;;;;;;2.23;1.17;;;6.20;56.90;;;;;;5055522;28;20064;-70
2022/02/26 07:17:46;;;;;;;5.07;1.27;;;6.20;57.20;;;;;;5055670;28;20025;-69
2022/02/26 07:20:12;;;;;;;3.17;1.10;;;6.30;57.20;;;;;;5051909;28;20108;-70
2022/02/26 07:22:38;;;;;;;4.37;1.27;;;6.30;57.20;;;;;;5052636;28;20036;-67
2022/02/26 07:25:04;;;;;;;3.87;1.40;;;6.40;57.30;;;;;;5053569;28;20101;-66
2022/02/26 07:27:30;;;;;;;3.73;1.47;;;6.40;57.40;;;;;;5054925;28;20039;-65
2022/02/26 07:29:55;;;;;;;3.70;1.33;;;6.40;57.90;;;;;;5053733;28;20448;-66
2022/02/26 07:32:21;;;;;;;4.50;1.20;;;6.40;57.80;;;;;;5051957;28;20033;-65
2022/02/26 07:34:47;;;;;;;2.57;1.03;;;6.50;57.90;;;;;;5052057;28;20136;-69
2022/02/26 07:37:13;;;;;;;5.97;1.30;;;6.60;57.00;;;;;;5054697;28;20116;-66
2022/02/26 07:39:38;;;;;;;3.00;1.20;;;6.80;54.80;;;;;;5054729;28;20021;-66
2022/02/26 07:42:04;;;;;;;1.63;0.80;;;6.80;54.90;;;;;;5054073;28;20037;-66
2022/02/26 07:44:30;;;;;;;6.50;1.53;;;6.80;55.40;;;;;;5050364;28;20044;-67
2022/02/26 07:46:56;;;;;;;4.37;1.30;;;6.90;55.90;;;;;;5052213;28;20032;-67
2022/02/26 07:49:21;;;;;;;3.37;1.13;;;7.00;56.30;;;;;;5054378;28;20508;-66
2022/02/26 07:51:47;;;;;;;2.17;1.17;;;7.00;56.50;;;;;;5051678;28;20045;-66
2022/02/26 07:54:13;;;;;;;5.10;1.33;;;7.00;56.10;;;;;;5051053;28;20025;-64
2022/02/26 07:56:38;;;;;;;7.40;1.40;;;7.10;56.00;;;;;;5045782;28;20128;-68
2022/02/26 07:59:04;;;;;;;2.80;1.20;;;7.20;55.80;;;;;;5055615;28;20044;-66
2022/02/26 08:01:30;;;;;;;1.97;1.20;;;7.20;55.20;;;;;;5051857;28;20026;-66
2022/02/26 08:03:55;;;;;;;2.33;0.97;;;7.30;54.80;;;;;;5041896;28;20024;-68
2022/02/26 08:06:21;;;;;;;2.73;0.97;;;7.40;54.70;;;;;;5034134;28;21120;-68
2022/02/26 08:08:47;;;;;;;1.73;0.80;;;7.40;54.30;;;;;;5034161;28;20022;-69
2022/02/26 08:11:13;;;;;;;1.83;0.90;;;7.50;54.30;;;;;;5034244;28;20108;-69
2022/02/26 08:13:38;;;;;;;3.77;1.40;;;7.50;54.20;;;;;;5060116;28;20051;-66
2022/02/26 08:16:04;;;;;;;3.23;1.07;;;7.60;54.30;;;;;;5054231;28;20090;-68
2022/02/26 08:18:30;;;;;;;1.43;0.80;;;7.70;53.40;;;;;;5054286;28;20397;-67
2022/02/26 08:20:57;;;;;;;1.70;0.83;;;7.80;52.80;;;;;;5053937;28;20025;-65
2022/02/26 08:23:22;;;;;;;3.17;0.90;;;7.80;53.00;;;;;;5053994;28;20021;-67
2022/02/26 08:25:48;;;;;;;2.17;0.97;;;7.90;53.30;;;;;;5053822;28;20086;-65
2022/02/26 08:28:14;;;;;;;4.93;1.10;;;7.90;53.00;;;;;;5053450;28;20104;-65
2022/02/26 08:30:40;;;;;;;2.93;1.20;;;8.00;53.60;;;;;;5053936;28;20021;-66
2022/02/26 08:33:06;;;;;;;5.53;1.00;;;8.10;52.20;;;;;;5053941;28;20492;-65
2022/02/26 08:35:31;;;;;;;2.57;1.07;;;8.20;51.70;;;;;;5053754;28;20049;-65
2022/02/26 08:37:57;;;;;;;3.83;0.90;;;8.20;52.40;;;;;;5053732;28;20104;-66
2022/02/26 08:40:23;;;;;;;3.73;1.00;;;8.30;52.20;;;;;;5053831;28;20376;-66
2022/02/26 08:42:50;;;;;;;3.77;1.00;;;8.30;52.20;;;;;;5053951;28;20025;-65
2022/02/26 08:45:15;;;;;;;3.23;0.90;;;8.40;52.00;;;;;;5053988;28;20029;-66
2022/02/26 08:47:42;;;;;;;2.30;0.70;;;8.40;51.90;;;;;;5054062;28;20034;-65
2022/02/26 08:50:11;;;;;;;3.67;0.80;;;8.50;50.30;;;;;;5053661;28;20474;-65
2022/02/26 08:52:37;;;;;;;1.60;0.90;;;8.50;49.80;;;;;;5052791;28;20025;-66
2022/02/26 08:55:04;;;;;;;1.83;0.80;;;8.60;50.30;;;;;;5050962;28;20043;-66
2022/02/26 08:57:29;;;;;;;3.10;0.93;;;8.60;50.10;;;;;;5051381;28;20037;-65
2022/02/26 08:59:55;;;;;;;2.83;0.90;;;8.70;50.10;;;;;;5052591;28;20086;-68
2022/02/26 09:02:21;;;;;;;1.77;0.90;;;8.70;50.30;;;;;;5052338;28;20029;-65
2022/02/26 09:04:46;;;;;;;2.00;1.00;;;8.80;50.60;;;;;;5053670;28;20025;-66
2022/02/26 09:07:12;;;;;;;1.37;0.70;;;8.90;50.40;;;;;;5053153;28;20070;-65
2022/02/26 09:09:38;;;;;;;2.00;0.70;;;8.90;49.90;;;;;;5053710;28;20075;-69
2022/02/26 09:12:04;;;;;;;1.97;0.70;;;9.00;49.90;;;;;;5053545;28;20024;-66
2022/02/26 09:14:30;;;;;;;3.13;0.87;;;9.00;49.50;;;;;;5053557;28;20025;-65
2022/02/26 09:16:56;;;;;;;2.13;0.83;;;9.10;49.00;;;;;;5053139;28;20044;-66
2022/02/26 09:19:21;;;;;;;2.10;0.70;;;9.20;49.20;;;;;;5050584;28;20033;-65
2022/02/26 09:21:48;;;;;;;2.90;0.73;;;9.20;48.20;;;;;;5050583;28;20025;-66
2022/02/26 09:24:14;;;;;;;1.67;0.60;;;9.20;48.20;;;;;;5051216;28;20462;-66
2022/02/26 09:26:40;;;;;;;3.10;0.90;;;9.30;48.10;;;;;;5052925;28;20025;-65
2022/02/26 09:29:06;;;;;;;1.10;0.60;;;9.40;47.80;;;;;;5053161;28;20118;-68
2022/02/26 09:31:31;;;;;;;2.40;0.70;;;9.40;48.60;;;;;;5053009;28;20055;-65
2022/02/26 09:33:57;;;;;;;2.37;0.80;;;9.50;49.10;;;;;;5052505;28;20041;-65
2022/02/26 09:36:23;;;;;;;3.13;0.87;;;9.50;48.80;;;;;;5052776;28;20133;-66
2022/02/26 09:38:49;;;;;;;1.23;0.70;;;9.60;48.30;;;;;;5053051;28;20099;-66
2022/02/26 09:41:14;;;;;;;3.87;0.83;;;9.70;48.40;;;;;;5052775;28;20139;-66
2022/02/26 09:43:40;;;;;;;1.17;0.50;;;9.70;48.20;;;;;;5052400;28;20606;-64
2022/02/26 09:46:07;;;;;;;3.47;0.80;;;9.80;47.30;;;;;;5052850;28;20033;-65
2022/02/26 09:48:35;;;;;;;2.47;0.80;;;9.90;46.40;;;;;;5052731;28;20424;-68
2022/02/26 09:51:03;;;;;;;2.40;0.80;;;10.00;46.70;;;;;;5053058;28;20033;-68
2022/02/26 09:53:29;;;;;;;2.63;0.83;;;10.00;46.50;;;;;;5052958;28;20021;-65
2022/02/26 09:55:55;;;;;;;3.23;0.60;;;10.10;46.50;;;;;;5052498;28;20063;-67
2022/02/26 09:58:22;;;;;;;1.00;0.70;;;10.10;46.80;;;;;;5052927;28;20075;-66
2022/02/26 10:00:48;;;;;;;3.43;0.67;;;10.20;44.90;;;;;;5051714;28;20371;-66
2022/02/26 10:03:35;;;;;;;1.93;0.67;;;10.30;46.70;;;;;;5052610;28;20405;-66
2022/02/26 10:06:03;;;;;;;1.30;0.70;;;10.30;47.30;;;;;;5052801;28;20052;-68
2022/02/26 10:08:36;;;;;;;4.17;1.00;;;10.40;46.40;;;;;;5052211;28;20075;-66
2022/02/26 10:11:01;;;;;;;4.82;0.75;;;10.40;46.00;;;;;;5052525;28;20021;-66
2022/02/26 10:13:27;;;;;;;1.47;0.60;;;10.40;45.10;;;;;;5052553;28;20497;-68
2022/02/26 10:15:53;;;;;;;1.40;0.70;;;10.50;45.00;;;;;;5052664;28;20397;-66
2022/02/26 10:18:19;;;;;;;0.80;0.50;;;10.50;45.80;;;;;;5052044;28;20025;-66
2022/02/26 10:20:54;;;;;;;1.47;0.77;;;10.60;45.90;;;;;;5052389;28;20025;-66
2022/02/26 10:23:22;;;;;;;1.83;1.00;;;10.60;45.50;;;;;;5052494;28;20029;-66
2022/02/26 10:25:48;;;;;;;2.00;0.93;;;10.70;45.60;;;;;;5052409;28;20378;-66
2022/02/26 10:28:15;;;;;;;2.03;0.97;;;10.70;45.50;;;;;;5052563;28;20492;-66
2022/02/26 10:30:45;;;;;;;3.33;1.30;;;10.80;45.00;;;;;;5052493;28;20029;-69
2022/02/26 10:33:17;;;;;;;4.20;2.43;;;10.80;44.50;;;;;;5052486;28;20021;-66
2022/02/26 10:35:45;;;;;;;3.88;1.20;;;10.80;45.10;;;;;;5052442;28;20049;-66
2022/02/26 10:38:32;;;;;;;2.90;0.80;;;10.80;45.70;;;;;;5052656;28;20155;-66
2022/02/26 10:40:57;;;;;;;3.30;0.93;;;10.90;45.30;;;;;;5052227;28;20025;-69
2022/02/26 10:43:40;;;;;;;4.70;0.83;;;10.90;44.00;;;;;;5052262;28;20029;-68
2022/02/26 10:46:15;;;;;;;3.63;1.15;;;11.00;44.10;;;;;;5052447;28;20021;-67
2022/02/26 10:48:42;;;;;;;2.17;0.90;;;11.00;44.70;;;;;;5052289;28;20035;-66
2022/02/26 10:51:20;;;;;;;1.40;0.80;;;11.10;44.00;;;;;;5052368;28;20021;-66
2022/02/26 10:53:47;;;;;;;2.13;0.70;;;11.20;43.70;;;;;;5052700;28;20021;-66
2022/02/26 10:56:13;;;;;;;1.23;0.67;;;11.20;43.80;;;;;;5054812;28;20036;-66
2022/02/26 10:58:41;;;;;;;1.17;0.75;;;11.30;43.80;;;;;;5056147;28;20036;-66
2022/02/26 11:01:18;;;;;;;1.87;0.90;;;11.30;44.70;;;;;;5055652;28;20025;-69
2022/02/26 11:03:44;;;;;;;5.18;1.00;;;11.40;45.20;;;;;;5055642;28;20027;-68
2022/02/26 11:06:12;;;;;;;1.50;0.77;;;11.50;45.20;;;;;;5055769;28;20029;-66
2022/02/26 11:08:39;;;;;;;1.20;0.60;;;11.60;45.70;;;;;;5055809;28;20055;-65
2022/02/26 11:11:07;;;;;;;1.58;0.95;;;11.70;44.90;;;;;;5055818;28;20040;-66
2022/02/26 11:13:36;;;;;;;0.82;0.50;;;11.70;44.00;;;;;;5055763;28;20028;-69
2022/02/26 11:16:04;;;;;;;2.28;1.02;;;11.80;43.30;;;;;;5055938;28;20044;-66
2022/02/26 11:18:47;;;;;;;2.17;1.05;;;11.80;43.90;;;;;;5053524;28;20092;-66
2022/02/26 11:21:16;;;;;;;2.50;0.80;;;11.90;43.60;;;;;;5052350;28;20091;-66
2022/02/26 11:23:42;;;;;;;2.28;0.82;;;12.00;43.30;;;;;;5052559;28;20109;-66
2022/02/26 11:26:09;;;;;;;1.83;1.00;;;12.10;42.20;;;;;;5055261;28;20107;-67
2022/02/26 11:28:46;;;;;;;1.67;0.70;;;12.10;43.20;;;;;;5055222;28;20036;-68
2022/02/26 11:31:17;;;;;;;1.17;0.70;;;12.20;42.30;;;;;;5054993;28;20060;-68
2022/02/26 11:33:44;;;;;;;1.58;0.70;;;12.20;42.50;;;;;;5054788;28;20048;-67
2022/02/26 11:36:10;;;;;;;1.52;0.68;;;12.30;41.40;;;;;;5054920;28;20493;-66
2022/02/26 11:38:37;;;;;;;2.70;0.80;;;12.30;40.90;;;;;;5055284;28;20032;-66
2022/02/26 11:41:15;;;;;;;2.97;0.65;;;12.30;40.90;;;;;;5055006;28;20488;-66
2022/02/26 11:43:44;;;;;;;2.03;0.73;;;12.30;41.30;;;;;;5054903;28;20569;-66
2022/02/26 11:46:22;;;;;;;1.33;0.60;;;12.30;41.50;;;;;;5055096;28;20033;-66
2022/02/26 11:48:49;;;;;;;2.70;0.90;;;12.40;41.60;;;;;;5054483;28;20043;-66
2022/02/26 11:51:15;;;;;;;2.03;0.90;;;12.50;42.70;;;;;;5052876;28;20095;-67
2022/02/26 11:53:51;;;;;;;3.95;1.10;;;12.50;43.00;;;;;;5052222;28;20496;-66
2022/02/26 11:56:16;;;;;;;1.90;1.00;;;12.50;41.30;;;;;;5052123;28;20052;-67
2022/02/26 11:58:44;;;;;;;1.63;0.88;;;12.60;41.40;;;;;;5054534;28;20526;-66
2022/02/26 12:01:16;;;;;;;2.78;0.70;;;12.70;41.30;;;;;;5054547;28;20111;-67
2022/02/26 12:03:42;;;;;;;2.25;1.00;;;12.80;41.20;;;;;;5054660;28;20062;-66
2022/02/26 12:06:13;;;;;;;2.28;0.80;;;12.80;41.10;;;;;;5054132;28;20453;-67
2022/02/26 12:08:40;;;;;;;1.98;0.90;;;12.80;40.30;;;;;;5054473;28;20488;-67
2022/02/26 12:11:08;;;;;;;1.35;0.90;;;12.90;40.40;;;;;;5054612;28;20028;-67
2022/02/26 12:13:38;;;;;;;1.95;0.82;;;13.00;41.00;;;;;;5053875;28;20025;-66
2022/02/26 12:16:16;;;;;;;2.03;0.90;;;13.00;40.30;;;;;;5054253;28;20448;-66
2022/02/26 12:19:03;;;;;;;1.63;0.90;;;13.10;39.90;;;;;;5054385;28;20066;-67
2022/02/26 12:21:44;;;;;;;1.98;1.00;;;13.10;39.90;;;;;;5050200;28;20043;-67
2022/02/26 12:24:28;;;;;;;3.45;1.10;;;13.10;39.90;;;;;;5054648;28;20120;-68
2022/02/26 12:27:03;;;;;;;1.38;0.82;;;13.10;39.90;;;;;;5054061;28;20025;-66
2022/02/26 12:29:31;;;;;;;2.63;1.40;;;13.10;39.40;;;;;;5054394;28;20371;-68
2022/02/26 12:32:04;;;;;;;2.63;1.30;;;13.20;39.80;;;;;;5054114;28;20025;-67
2022/02/26 12:34:53;;;;;;;3.88;1.20;;;13.20;39.90;;;;;;5053758;28;20389;-67
2022/02/26 12:37:23;;;;;;;1.77;0.88;;;13.30;40.50;;;;;;5050898;28;20529;-66
2022/02/26 12:39:56;;;;;;;2.33;1.17;;;13.40;40.30;;;;;;5053949;28;20031;-66
2022/02/26 12:42:27;;;;;;;5.05;1.17;;;;;;;;;;5053356;28;20028;-66
2022/02/26 12:44:57;;;;;;;3.03;1.40;;;;;;;;;;5053838;28;20099;-66
2022/02/26 12:47:24;;;;;;;2.67;1.23;;;;;;;;;;5053975;28;20103;-66
2022/02/26 12:49:50;;;;;;;1.88;1.10;;;;;;;;;;5053500;28;20143;-66
2022/02/26 12:52:17;;;;;;;2.75;1.10;;;;;;;;;;5053690;28;20052;-66
2022/02/26 12:54:43;;;;;;;7.43;1.38;;;;;;;;;;5053727;28;20021;-66
2022/02/26 12:57:10;;;;;;;3.70;1.33;;;;;;;;;;5053453;28;20072;-65
2022/02/26 12:59:36;;;;;;;3.20;1.33;;;;;;;;;;5053392;28;20466;-66
2022/02/26 13:02:04;;;;;;;2.50;1.17;;;;;;;;;;5053385;28;20086;-65
2022/02/26 13:04:31;;;;;;;3.00;1.30;;;;;;;;;;5053273;28;20028;-66
2022/02/26 13:06:57;;;;;;;2.45;1.30;;;;;;;;;;5053524;28;20375;-66
2022/02/26 13:09:24;;;;;;;1.85;1.00;;;;;;;;;;5053369;28;20067;-66
2022/02/26 13:11:52;;;;;;;0.98;0.75;;;;;;;;;;5053184;28;20115;-65
2022/02/26 13:14:18;;;;;;;2.80;0.98;;;;;;;;;;5053027;28;20028;-66
2022/02/26 13:16:54;;;;;;;2.85;1.38;;;;;;;;;;5052766;28;20033;-66
2022/02/26 13:19:21;;;;;;;2.67;1.30;;;;;;;;;;5052778;28;20024;-67
2022/02/26 13:21:47;;;;;;;3.08;1.20;;;;;;;;;;5053528;28;20382;-66
2022/02/26 13:24:13;;;;;;;2.80;1.38;;;;;;;;;;5053176;28;20108;-65